Skip Navigation Links
NOAA logo - Click to go to the NOAA homepage
NOAA's National Weather Service
Alaska Aviation Weather Unit
  NWS logo - Click to go to the NWS homepage
Left Navbar Graphic     03 AKDT = 11 GMT

   
NOAA is celebrating 200 years of science, service, and stewardship. Visit the NOAA 200th celebration Web site to learn more.
USA.gov is the U.S. Government's official Web portal to all Federal, state and local government Web resources and services.
Facebook
NWS on Facebook

AAWU Home :: Display TAF Add Bookmark
TAF PAMC 290520Z 2906/3006 33006KT P6SM BKN045 BKN100
     FM291200 VRB03KT P6SM SCT050 BKN100
     FM292200 VRB03KT P6SM -SN SCT030 BKN050 OVC100=

METAR PAMC 290553Z AUTO 33003KT 10SM OVC040 M07/M14 A2964 RMK AO2 SLP047 T10721139 11033 21072 53015 TSNO= METAR PAMC 290653Z AUTO 31004KT 10SM FEW033 BKN055 OVC095 M08/M14 A2965 RMK AO2 SLP051 T10831139 TSNO= METAR PAMC 290753Z AUTO 00000KT 10SM SCT042 BKN050 OVC070 M09/M14 A2967 RMK AO2 SLP056 T10941139 TSNO= METAR PAMC 290853Z AUTO 27004KT 10SM OVC040 M11/M15 A2967 RMK AO2 SLP058 T11111150 410331183 51010 TSNO= METAR PAMC 290953Z AUTO 00000KT 10SM BKN047 OVC090 M11/M14 A2968 RMK AO2 SLP059 T11111144 TSNO= METAR PAMC 291053Z AUTO 00000KT 10SM BKN050 OVC065 M12/M15 A2968 RMK AO2 SLP060 T11171150 TSNO=
 Alaska TAF Map

NOAA's National Weather Service
Alaska Aviation Weather Unit
6930 Sand Lake Road
Anchorage, AK 99502-1845
Disclaimer
Credits
Glossary
Privacy Policy
About Us
Career Opportunities
Contact AAWU Internet Services Site last modified: April, 17th 2012